Oak Island, Minnesota
Current Conditions -  °F | °C
As of 7:14 AM on Tuesday 21 Oct 2014 (Local Time) from KFGN Reporting Station
Clear Clear  
Wind Chill:   Ceiling: Unl
Heat Index:   Visibility: 10mi
Dew Point:   Wind: 17mph
Humidity: 81%   Direction: 150°SSE
Pressure: 30.11"   Gusts: 24mph
Location:  49.3°N, 94.86°W
Report Text: KFGN 211214Z AUTO 15015G21KT 10SM CLR 06/03 A3011 RMK AO2
Loading
Personal Weather Stations






























Interactive Weather Map
Tropical Storm Tracking
New forecast layout! Learn more

10-Day Weather Forecast

Advertisements
Track Severe Weather on mobile